Time;durP1;ratioP1;P1;durP2;ratioP2;P2;SDS_P1;SDS_P2;PMS_P1;PMS_P2;Temp;Humidity;BMP_temperature;BMP_pressure;BME280_temperature;BME280_humidity;BME280_pressure;Samples;Min_cycle;Max_cycle;Signal;HPM_P1;HPM_P2
2021/10/03 00:02:02;;;;;;;26.75;17.90;;;;;;;6.46;70.29;100916.19;1716811;83;22111;-61
2021/10/03 00:04:32;;;;;;;23.30;17.30;;;;;;;6.60;70.49;100923.94;1695820;83;21062;-61
2021/10/03 00:07:00;;;;;;;25.35;18.73;;;;;;;6.62;70.51;100916.95;1693579;83;21618;-61
2021/10/03 00:09:27;;;;;;;23.73;18.00;;;;;;;6.60;70.72;100920.88;1718915;83;21450;-64
2021/10/03 00:11:54;;;;;;;30.10;20.62;;;;;;;6.59;70.60;100916.55;1738860;79;21436;-62
2021/10/03 00:14:22;;;;;;;30.12;22.17;;;;;;;6.61;70.53;100925.66;1763203;80;21777;-64
2021/10/03 00:16:52;;;;;;;23.83;18.02;;;;;;;6.58;70.91;100927.86;1753967;80;21421;-62
2021/10/03 00:19:19;;;;;;;26.85;17.98;;;;;;;6.64;71.10;100930.88;1742445;80;21458;-62
2021/10/03 00:21:48;;;;;;;29.67;19.25;;;;;;;6.75;71.27;100924.28;1757976;80;21454;-61
2021/10/03 00:24:15;;;;;;;29.18;20.20;;;;;;;6.77;71.17;100926.44;1751684;80;21096;-61
2021/10/03 00:26:42;;;;;;;28.40;19.60;;;;;;;6.76;71.19;100927.30;1764515;80;22022;-63
2021/10/03 00:29:10;;;;;;;33.63;21.12;;;;;;;6.73;71.02;100930.82;1742399;80;21506;-60
2021/10/03 00:31:36;;;;;;;33.88;21.87;;;;;;;6.71;70.78;100927.80;1763799;80;21436;-60
2021/10/03 00:34:03;;;;;;;30.15;20.37;;;;;;;6.67;70.71;100920.83;1766364;80;21404;-59
2021/10/03 00:36:30;;;;;;;23.70;19.45;;;;;;;6.71;70.97;100925.19;1772322;80;21514;-60
2021/10/03 00:38:58;;;;;;;32.35;21.12;;;;;;;6.81;70.90;100925.09;1756438;80;21433;-61
2021/10/03 00:41:24;;;;;;;28.33;20.37;;;;;;;6.81;70.49;100926.84;1769806;80;21399;-62
2021/10/03 00:43:51;;;;;;;27.55;19.70;;;;;;;6.74;70.28;100926.45;1761260;80;21439;-60
2021/10/03 00:46:18;;;;;;;25.72;19.98;;;;;;;6.66;70.13;100927.81;1772078;80;21573;-61
2021/10/03 00:48:45;;;;;;;31.55;20.92;;;;;;;6.59;69.95;100925.69;1740234;80;21652;-63
2021/10/03 00:51:11;;;;;;;28.65;21.90;;;;;;;6.52;69.69;100921.82;1768458;80;22158;-64
2021/10/03 00:53:38;;;;;;;27.98;20.02;;;;;;;6.43;69.46;100922.73;1769084;79;21777;-63
2021/10/03 00:56:05;;;;;;;25.17;18.70;;;;;;;6.39;69.63;100924.93;1759837;81;21404;-62
2021/10/03 00:58:32;;;;;;;27.73;19.17;;;;;;;6.46;69.63;100926.64;1760228;81;21476;-64
2021/10/03 01:01:01;;;;;;;29.95;18.85;;;;;;;6.45;69.42;100924.03;1760116;79;21589;-63
2021/10/03 01:03:27;;;;;;;24.95;19.23;;;;;;;6.37;69.37;100923.62;1760763;80;21775;-63
2021/10/03 01:05:54;;;;;;;24.72;19.02;;;;;;;6.29;69.22;100926.73;1760322;81;21464;-63
2021/10/03 01:08:20;;;;;;;25.20;19.02;;;;;;;6.19;69.30;100927.17;1759922;81;21408;-62
2021/10/03 01:10:49;;;;;;;27.02;19.50;;;;;;;6.11;69.28;100927.66;1708542;81;21523;-62
2021/10/03 01:13:16;;;;;;;25.13;16.73;;;;;;;6.02;69.25;100926.38;1760987;80;21116;-63
2021/10/03 01:15:44;;;;;;;24.87;18.30;;;;;;;5.99;69.53;100927.27;1751272;80;21408;-63
2021/10/03 01:18:12;;;;;;;26.23;19.10;;;;;;;6.10;69.92;100928.96;1757876;80;21545;-63
2021/10/03 01:20:40;;;;;;;25.48;18.25;;;;;;;6.07;69.92;100922.47;1758765;81;20958;-63
2021/10/03 01:23:07;;;;;;;25.25;18.50;;;;;;;6.01;69.87;100920.30;1760028;80;21393;-62
2021/10/03 01:25:37;;;;;;;21.77;17.97;;;;;;;5.92;69.88;100926.83;1761028;79;21428;-63
2021/10/03 01:28:05;;;;;;;24.55;17.55;;;;;;;5.92;69.88;100926.83;1759982;80;21495;-63
2021/10/03 01:30:32;;;;;;;25.72;18.12;;;;;;;5.88;69.59;100922.91;1760340;81;21503;-62
2021/10/03 01:32:59;;;;;;;24.20;16.87;;;;;;;5.82;69.47;100924.69;1760258;79;21535;-62
2021/10/03 01:35:26;;;;;;;21.40;15.55;;;;;;;5.83;69.81;100922.48;1767604;80;21499;-62
2021/10/03 01:37:52;;;;;;;22.73;15.72;;;;;;;5.94;69.94;100917.69;1772774;79;21419;-62
2021/10/03 01:40:20;;;;;;;20.20;16.40;;;;;;;5.93;69.74;100919.41;1772881;79;21836;-62
2021/10/03 01:42:47;;;;;;;24.30;17.55;;;;;;;5.89;69.90;100915.08;1770651;80;20969;-63
2021/10/03 01:45:16;;;;;;;23.15;17.15;;;;;;;5.85;70.10;100919.88;1770503;80;21440;-62
2021/10/03 01:48:12;;;;;;;21.30;16.42;;;;;;;5.81;70.16;100919.02;1750558;80;21438;-63
2021/10/03 01:50:56;;;;;;;20.12;15.30;;;;;;;5.79;70.11;100923.82;1762347;80;21486;-63
2021/10/03 01:53:30;;;;;;;20.17;16.45;;;;;;;5.83;70.46;100927.70;1750933;80;22098;-64
2021/10/03 01:55:57;;;;;;;21.23;17.15;;;;;;;5.93;70.39;100925.08;1753630;80;21432;-64
2021/10/03 01:58:30;;;;;;;18.73;16.05;;;;;;;5.90;70.50;100925.96;1772320;80;21522;-64
2021/10/03 02:01:11;;;;;;;23.50;16.00;;;;;;;5.85;70.49;100924.66;1772409;80;21440;-65
2021/10/03 02:03:38;;;;;;;23.98;17.42;;;;;;;5.82;70.76;100925.99;1772389;80;21467;-63
2021/10/03 02:06:05;;;;;;;25.37;18.75;;;;;;;5.79;70.69;100932.52;1770760;80;21792;-64
2021/10/03 02:08:33;;;;;;;19.23;16.05;;;;;;;5.77;70.73;100928.18;1770540;80;21429;-64
2021/10/03 02:11:00;;;;;;;22.20;16.48;;;;;;;5.78;70.83;100922.07;1746398;80;21423;-64
2021/10/03 02:13:28;;;;;;;20.65;16.82;;;;;;;5.92;70.86;100929.44;1772047;80;21463;-65
2021/10/03 02:15:56;;;;;;;21.65;16.77;;;;;;;5.94;70.70;100918.55;1772048;80;21530;-65
2021/10/03 02:18:22;;;;;;;19.27;16.03;;;;;;;5.92;70.47;100922.91;1772243;80;21577;-64
2021/10/03 02:20:53;;;;;;;25.48;18.42;;;;;;;5.87;70.22;100926.41;1747288;80;21722;-64
2021/10/03 02:23:20;;;;;;;24.32;16.48;;;;;;;5.80;70.09;100929.05;1760628;80;21533;-63
2021/10/03 02:25:47;;;;;;;23.80;16.80;;;;;;;5.75;69.92;100928.63;1772671;80;21450;-60
2021/10/03 02:28:17;;;;;;;23.20;17.80;;;;;;;5.65;69.73;100928.64;1755070;80;21482;-61
2021/10/03 02:30:45;;;;;;;23.10;16.27;;;;;;;5.56;69.71;100930.41;1742156;80;21779;-60
2021/10/03 02:33:12;;;;;;;;;;;;;;;5.57;70.05;100933.43;1757490;80;21495;-60
2021/10/03 02:35:39;;;;;;;23.53;16.73;;;;;;;5.68;70.05;100932.11;1753790;80;20474;-61
2021/10/03 02:38:07;;;;;;;24.32;17.55;;;;;;;5.64;69.92;100928.64;1761048;80;21482;-60
2021/10/03 02:40:34;;;;;;;23.27;18.20;;;;;;;5.57;69.92;100938.20;1760145;80;21404;-61
2021/10/03 02:43:05;;;;;;;24.70;17.35;;;;;;;5.50;70.23;100932.59;1760255;80;22060;-61
2021/10/03 02:45:29;;;;;;;27.22;18.90;;;;;;;5.50;70.34;100938.22;1768738;79;21488;-61
2021/10/03 02:47:56;;;;;;;22.00;16.57;;;;;;;5.45;70.45;100936.48;1763820;79;21529;-62
2021/10/03 02:50:23;;;;;;;21.25;16.65;;;;;;;5.47;70.69;100936.49;1762969;80;21506;-62
2021/10/03 02:52:50;;;;;;;26.90;17.77;;;;;;;5.61;70.66;100941.67;1773878;79;21476;-62
2021/10/03 02:55:16;;;;;;;30.60;18.55;;;;;;;5.65;70.49;100932.97;1761654;79;22077;-61
2021/10/03 02:57:43;;;;;;;24.05;19.05;;;;;;;5.57;70.52;100938.64;1789356;79;20957;-61
2021/10/03 03:00:11;;;;;;;24.12;18.37;;;;;;;5.50;70.44;100944.73;1768520;79;21487;-61
2021/10/03 03:02:38;;;;;;;24.45;18.25;;;;;;;5.41;70.50;100933.45;1774302;79;21566;-61
2021/10/03 03:05:08;;;;;;;26.52;18.75;;;;;;;5.36;70.37;100942.16;1773916;79;21423;-60
2021/10/03 03:07:38;;;;;;;22.67;17.32;;;;;;;5.30;70.10;100945.63;1772680;79;21758;-61
2021/10/03 03:10:08;;;;;;;20.85;17.07;;;;;;;5.31;70.33;100946.50;1763165;79;20953;-60
2021/10/03 03:12:35;;;;;;;22.70;17.42;;;;;;;5.40;70.52;100938.22;1776004;79;21009;-60
2021/10/03 03:15:05;;;;;;;25.43;18.50;;;;;;;5.43;70.38;100939.53;1766035;79;21435;-61
2021/10/03 03:17:32;;;;;;;25.60;18.20;;;;;;;5.38;70.39;100944.33;1761200;79;21558;-61
2021/10/03 03:19:58;;;;;;;25.43;17.87;;;;;;;5.33;70.57;100943.03;1772505;80;21685;-61
2021/10/03 03:22:26;;;;;;;22.98;18.32;;;;;;;5.32;70.73;100940.42;1760302;79;21629;-61
2021/10/03 03:24:53;;;;;;;;;;;;;;;5.31;70.88;100933.45;1778919;79;21494;-62
2021/10/03 03:27:21;;;;;;;21.30;15.58;;;;;;;5.33;71.51;100933.02;1776224;79;20538;-62
2021/10/03 03:29:49;;;;;;;21.65;16.00;;;;;;;5.46;71.20;100939.55;1775811;79;21576;-61
2021/10/03 03:32:15;;;;;;;21.30;16.00;;;;;;;5.49;70.83;100938.66;1755929;79;21738;-61
2021/10/03 03:34:42;;;;;;;20.40;16.10;;;;;;;5.44;70.66;100940.39;1777966;79;21419;-62
2021/10/03 03:37:09;;;;;;;26.05;16.48;;;;;;;5.37;70.78;100938.25;1773620;79;21408;-61
2021/10/03 03:39:36;;;;;;;23.50;17.82;;;;;;;5.32;70.50;100941.28;1779607;79;21412;-61
2021/10/03 03:42:03;;;;;;;26.62;18.37;;;;;;;5.25;70.37;100946.06;1773634;79;21546;-61
2021/10/03 03:44:31;;;;;;;23.77;17.60;;;;;;;5.16;70.35;100949.97;1772080;79;21793;-61
2021/10/03 03:47:00;;;;;;;23.40;17.85;;;;;;;5.13;70.56;100953.45;1786468;79;21049;-61
2021/10/03 03:49:27;;;;;;;23.55;18.27;;;;;;;5.24;70.53;100949.55;1776157;79;20964;-61
2021/10/03 03:51:54;;;;;;;25.32;18.12;;;;;;;5.24;70.39;100957.38;1777439;79;21422;-61
2021/10/03 03:54:22;;;;;;;26.17;18.30;;;;;;;5.19;70.13;100950.84;1784398;79;21558;-61
2021/10/03 03:56:50;;;;;;;27.45;18.10;;;;;;;5.12;70.10;100946.48;1782034;79;21504;-61
2021/10/03 03:59:17;;;;;;;26.20;18.73;;;;;;;5.04;70.12;100945.19;1755625;79;20960;-62
2021/10/03 04:01:43;;;;;;;24.85;18.40;;;;;;;4.99;70.17;100947.35;1763692;79;21440;-61
2021/10/03 04:04:10;;;;;;;20.12;16.27;;;;;;;4.96;70.01;100948.67;1773231;79;21439;-61
2021/10/03 04:06:37;;;;;;;23.05;17.52;;;;;;;4.95;70.35;100945.17;1785314;79;21510;-62
2021/10/03 04:10:52;;;;;;;26.27;20.17;;;;;;;5.13;70.23;100953.91;1787198;79;23075;-60
2021/10/03 04:13:19;;;;;;;25.37;18.00;;;;;;;5.04;70.02;100956.91;1706926;83;21419;-61
2021/10/03 04:15:46;;;;;;;22.67;16.80;;;;;;;4.98;70.20;100958.22;1701405;83;23100;-61
2021/10/03 04:18:13;;;;;;;25.50;18.90;;;;;;;4.94;70.25;100956.93;1703400;82;21735;-61
2021/10/03 04:20:40;;;;;;;26.10;17.87;;;;;;;4.90;70.27;100959.96;1703528;83;21613;-61
2021/10/03 04:23:08;;;;;;;23.60;16.97;;;;;;;4.88;70.28;100959.95;1711535;83;21561;-60
2021/10/03 04:25:34;;;;;;;21.12;15.88;;;;;;;4.84;70.50;100963.84;1701780;82;21009;-61
2021/10/03 04:28:01;;;;;;;19.32;15.50;;;;;;;4.90;70.95;100966.89;1708259;82;22130;-61
2021/10/03 04:30:28;;;;;;;19.00;15.98;;;;;;;5.02;71.09;100963.87;1706652;82;21451;-61
2021/10/03 04:32:55;;;;;;;18.70;15.00;;;;;;;5.09;71.10;100969.11;1704307;82;21502;-62
2021/10/03 04:35:22;;;;;;;22.37;15.63;;;;;;;5.09;71.21;100975.63;1704945;83;21582;-61
2021/10/03 04:37:49;;;;;;;22.57;16.33;;;;;;;5.06;71.47;100965.61;1705467;83;21065;-62
2021/10/03 04:40:16;;;;;;;20.27;15.78;;;;;;;5.10;71.71;100972.14;1706091;82;22072;-62
2021/10/03 04:42:45;;;;;;;21.68;14.75;;;;;;;5.13;71.72;100969.55;1705798;83;21484;-61
2021/10/03 04:45:11;;;;;;;21.07;14.23;;;;;;;5.19;71.89;100977.36;1706148;82;21464;-61
2021/10/03 04:47:38;;;;;;;18.23;14.30;;;;;;;5.35;71.94;100977.81;1706085;83;21575;-61
2021/10/03 04:50:06;;;;;;;21.97;14.90;;;;;;;5.41;71.97;100979.10;1706185;82;21516;-61
2021/10/03 04:52:33;;;;;;;17.87;14.55;;;;;;;5.44;72.05;100980.83;1705656;83;21798;-61
2021/10/03 04:55:00;;;;;;;20.65;15.60;;;;;;;5.48;72.11;100989.53;1705622;82;21448;-62
2021/10/03 04:57:27;;;;;;;20.80;16.37;;;;;;;5.50;71.99;100982.56;1699997;83;21462;-62
2021/10/03 04:59:53;;;;;;;22.35;15.00;;;;;;;5.53;71.95;100991.27;1703469;82;21553;-63
2021/10/03 05:02:20;;;;;;;19.70;15.30;;;;;;;5.56;72.05;100987.80;1700648;82;21538;-63
2021/10/03 05:04:46;;;;;;;20.40;15.93;;;;;;;5.72;72.07;100991.25;1701006;83;21428;-62
2021/10/03 05:07:13;;;;;;;23.45;16.50;;;;;;;5.76;71.91;100993.84;1695742;82;21068;-64
2021/10/03 05:09:40;;;;;;;24.07;16.37;;;;;;;5.77;71.83;100996.90;1692713;83;21558;-63
2021/10/03 05:12:09;;;;;;;24.92;16.50;;;;;;;5.77;71.69;100995.59;1691629;83;21657;-60
2021/10/03 05:14:36;;;;;;;18.95;16.12;;;;;;;5.78;71.75;100992.54;1687128;84;21511;-60
2021/10/03 05:17:03;;;;;;;22.35;14.38;;;;;;;5.78;71.81;100992.13;1690563;84;21848;-61
2021/10/03 05:19:32;;;;;;;19.35;15.43;;;;;;;5.83;72.28;100989.50;1684574;84;21576;-61
2021/10/03 05:21:58;;;;;;;18.27;16.07;;;;;;;6.03;72.46;100985.58;1692279;83;20996;-62
2021/10/03 05:24:25;;;;;;;21.10;16.48;;;;;;;6.10;72.35;100984.66;1686476;83;21532;-62
2021/10/03 05:26:52;;;;;;;23.42;16.20;;;;;;;6.15;72.47;100984.22;1683423;84;21052;-62
2021/10/03 05:29:18;;;;;;;20.90;15.95;;;;;;;6.17;72.31;100987.69;1683007;84;22134;-62
2021/10/03 05:31:45;;;;;;;23.60;16.27;;;;;;;6.19;72.27;100981.16;1687669;83;21580;-63
2021/10/03 05:34:13;;;;;;;20.30;14.27;;;;;;;6.22;72.28;100983.33;1680508;83;21078;-64
2021/10/03 05:36:39;;;;;;;22.20;16.02;;;;;;;6.31;72.53;100982.85;1682866;83;21465;-63
2021/10/03 05:39:06;;;;;;;20.40;15.58;;;;;;;6.48;72.29;100986.28;1688547;84;21511;-63
2021/10/03 05:41:34;;;;;;;20.40;15.38;;;;;;;6.55;71.82;100984.05;1717168;81;22219;-65
2021/10/03 05:44:22;;;;;;;25.17;15.48;;;;;;;6.59;71.76;100984.91;1737953;81;26793;-64
2021/10/03 05:46:49;;;;;;;18.98;15.83;;;;;;;6.62;71.64;100987.07;1688137;83;21440;-64
2021/10/03 05:49:15;;;;;;;22.22;14.83;;;;;;;6.67;71.47;100984.86;1669792;83;21517;-65
2021/10/03 05:51:42;;;;;;;23.70;15.28;;;;;;;6.70;71.41;100987.47;1652345;86;21660;-64
2021/10/03 05:54:09;;;;;;;21.85;14.03;;;;;;;6.77;71.56;100982.64;1651466;86;21676;-64
2021/10/03 05:56:36;;;;;;;20.77;15.10;;;;;;;6.92;71.71;100982.99;1691463;84;21507;-64
2021/10/03 05:59:04;;;;;;;18.82;14.33;;;;;;;7.00;71.65;100982.05;1699848;84;21541;-64
2021/10/03 06:01:30;;;;;;;21.05;14.60;;;;;;;7.06;71.52;100987.67;1661854;84;21519;-64
2021/10/03 06:03:57;;;;;;;22.07;15.00;;;;;;;7.09;71.56;100990.73;1666586;83;21547;-64
2021/10/03 06:06:23;;;;;;;23.38;14.58;;;;;;;7.12;71.44;100989.37;1704777;83;21731;-64
2021/10/03 06:08:50;;;;;;;19.42;13.20;;;;;;;7.16;71.46;100989.36;1704213;83;21467;-62
2021/10/03 06:11:17;;;;;;;20.40;14.03;;;;;;;7.24;71.70;100997.59;1679619;84;21540;-64
2021/10/03 06:13:44;;;;;;;16.93;13.53;;;;;;;7.44;71.58;100996.11;1676907;83;21562;-68
2021/10/03 06:16:11;;;;;;;18.65;12.78;;;;;;;7.52;71.29;100999.11;1674815;84;21491;-66
2021/10/03 06:18:37;;;;;;;17.40;14.13;;;;;;;7.58;71.19;100997.73;1672306;83;21771;-64
2021/10/03 06:21:11;;;;;;;21.20;14.60;;;;;;;7.63;70.70;101004.25;1677921;83;21567;-63
2021/10/03 06:23:34;;;;;;;18.07;13.78;;;;;;;7.66;70.58;100995.05;1676412;84;21559;-64
2021/10/03 06:26:01;;;;;;;18.50;14.20;;;;;;;7.71;70.50;100995.88;1681053;83;21638;-63
2021/10/03 06:28:29;;;;;;;20.10;13.48;;;;;;;7.77;70.50;100998.88;1664616;83;21454;-64
2021/10/03 06:30:55;;;;;;;18.00;13.10;;;;;;;7.85;70.89;101002.28;1673541;84;22069;-64
2021/10/03 06:33:22;;;;;;;19.48;14.23;;;;;;;8.03;70.91;100999.92;1672565;83;21578;-64
2021/10/03 06:35:49;;;;;;;19.37;13.58;;;;;;;8.14;70.43;100990.20;1677522;84;21555;-65
2021/10/03 06:38:16;;;;;;;24.30;15.18;;;;;;;8.21;70.29;100994.91;1680455;84;21621;-67
2021/10/03 06:40:42;;;;;;;20.90;14.20;;;;;;;8.29;70.35;100994.84;1679583;83;21053;-67
2021/10/03 06:43:09;;;;;;;21.90;15.48;;;;;;;8.36;70.32;100991.24;1675389;83;22085;-67
2021/10/03 06:45:37;;;;;;;22.52;16.20;;;;;;;8.43;70.20;100990.77;1683239;83;21514;-67
2021/10/03 06:48:04;;;;;;;19.82;13.60;;;;;;;8.51;70.09;100987.17;1674462;83;21515;-66
2021/10/03 06:50:32;;;;;;;21.20;14.05;;;;;;;8.65;70.42;100988.75;1674615;83;21655;-65
2021/10/03 06:52:59;;;;;;;21.40;14.43;;;;;;;8.85;70.18;100993.25;1675643;83;21088;-67
2021/10/03 06:55:26;;;;;;;20.17;15.57;;;;;;;8.98;69.91;100993.08;1668882;84;22094;-66
2021/10/03 06:57:54;;;;;;;20.60;14.40;;;;;;;9.06;69.79;100996.45;1663162;85;21682;-65
2021/10/03 07:00:21;;;;;;;20.97;17.45;;;;;;;9.14;69.71;100993.28;1686470;82;21602;-65
2021/10/03 07:02:48;;;;;;;23.03;20.33;;;;;;;9.23;69.43;100990.52;1703843;83;21641;-65
2021/10/03 07:05:15;;;;;;;29.27;22.45;;;;;;;9.31;68.82;100989.09;1673626;84;21616;-64
2021/10/03 07:07:42;;;;;;;27.00;22.48;;;;;;;9.39;68.69;100988.95;1673637;85;21445;-66
2021/10/03 07:10:09;;;;;;;24.77;17.65;;;;;;;9.46;68.58;100987.97;1673488;84;21405;-65
2021/10/03 07:12:37;;;;;;;24.82;15.95;;;;;;;9.60;68.55;100989.89;1676550;85;21060;-68
2021/10/03 07:15:05;;;;;;;22.45;16.70;;;;;;;9.82;68.24;100990.84;1680962;84;21061;-64
2021/10/03 07:17:32;;;;;;;20.90;15.28;;;;;;;9.94;67.96;100990.17;1692690;83;21420;-65
2021/10/03 07:19:59;;;;;;;29.07;16.80;;;;;;;10.04;67.66;100987.34;1689994;83;21773;-65
2021/10/03 07:22:25;;;;;;;25.65;15.95;;;;;;;10.14;67.43;100982.34;1673675;84;21453;-65
2021/10/03 07:24:52;;;;;;;25.80;16.10;;;;;;;10.24;67.24;100986.97;1673497;85;21039;-66
2021/10/03 07:27:19;;;;;;;24.45;16.25;;;;;;;10.35;66.84;100977.13;1673719;85;21870;-66
2021/10/03 07:29:46;;;;;;;28.15;17.17;;;;;;;10.46;66.66;100978.23;1702431;83;21577;-66
2021/10/03 07:32:13;;;;;;;22.40;17.40;;;;;;;10.55;66.04;100984.61;1706380;82;21836;-64
2021/10/03 07:34:40;;;;;;;23.37;15.97;;;;;;;10.65;65.38;100988.77;1674561;83;21542;-66
2021/10/03 07:37:07;;;;;;;25.08;18.92;;;;;;;10.75;64.87;100988.56;1676893;83;21510;-64
2021/10/03 07:39:37;;;;;;;24.10;17.65;;;;;;;10.83;64.86;100983.56;1670372;83;21771;-65
2021/10/03 07:42:04;;;;;;;19.73;15.03;;;;;;;10.94;64.31;100982.44;1674102;83;21946;-64
2021/10/03 07:44:33;;;;;;;19.75;13.88;;;;;;;11.03;63.46;100983.08;1670197;83;21841;-70
2021/10/03 07:47:00;;;;;;;24.77;15.83;;;;;;;11.11;62.89;100981.58;1670439;83;21061;-64
2021/10/03 07:49:27;;;;;;;21.97;15.80;;;;;;;11.20;63.04;100976.10;1679633;83;21443;-67
2021/10/03 07:51:53;;;;;;;22.13;16.25;;;;;;;11.31;62.81;100977.17;1672161;83;21673;-66
2021/10/03 07:54:20;;;;;;;25.82;15.72;;;;;;;11.40;62.66;100966.87;1672355;83;21128;-66
2021/10/03 07:56:50;;;;;;;20.08;14.68;;;;;;;11.51;62.54;100968.78;1687731;83;22113;-65
2021/10/03 07:59:16;;;;;;;;;;;;;;;11.61;62.22;100970.72;1695942;83;21485;-65
2021/10/03 08:01:43;;;;;;;18.10;13.38;;;;;;;11.69;61.78;100968.27;1683102;83;20501;-65
2021/10/03 08:04:10;;;;;;;21.10;15.15;;;;;;;11.77;61.09;100969.84;1683110;83;20953;-66
2021/10/03 08:06:37;;;;;;;25.17;13.88;;;;;;;11.86;60.84;100965.19;1683286;83;21391;-65
2021/10/03 08:09:04;;;;;;;20.60;15.00;;;;;;;11.96;60.69;100964.55;1679284;83;21806;-72
2021/10/03 08:11:32;;;;;;;24.18;13.43;;;;;;;12.06;60.47;100966.47;1673151;85;21018;-67
2021/10/03 08:13:59;;;;;;;18.97;12.60;;;;;;;12.15;60.24;100967.53;1670798;85;21605;-62
2021/10/03 08:16:27;;;;;;;22.62;12.60;;;;;;;12.26;59.87;100962.81;1663213;83;25175;-73
2021/10/03 08:18:57;;;;;;;22.58;13.13;;;;;;;12.38;59.09;100966.86;1653070;85;21709;-73
2021/10/03 08:21:23;;;;;;;18.80;11.48;;;;;;;12.48;58.69;100962.17;1661482;84;22176;-69
2021/10/03 08:23:51;;;;;;;18.30;12.50;;;;;;;12.58;58.64;100961.44;1684304;83;21521;-66
2021/10/03 08:26:18;;;;;;;18.95;12.23;;;;;;;12.66;58.14;100955.49;1684403;83;21445;-69
2021/10/03 08:28:46;;;;;;;16.17;11.68;;;;;;;12.76;57.58;100966.16;1669695;83;21501;-69
2021/10/03 08:31:13;;;;;;;20.45;11.85;;;;;;;12.84;57.25;100960.17;1661954;85;21573;-67
2021/10/03 08:33:40;;;;;;;17.92;10.32;;;;;;;12.95;56.69;100954.56;1654416;83;22151;-66
2021/10/03 08:36:07;;;;;;;16.02;9.45;;;;;;;13.05;56.44;100959.09;1676996;83;21467;-67
2021/10/03 08:38:34;;;;;;;17.45;10.78;;;;;;;13.18;55.46;100966.16;1656692;85;21464;-66
2021/10/03 08:41:01;;;;;;;12.18;9.15;;;;;;;13.30;55.23;100963.58;1659362;83;21535;-67
2021/10/03 08:43:29;;;;;;;8.70;6.33;;;;;;;13.39;54.83;100969.47;1675667;84;21545;-65
2021/10/03 08:45:57;;;;;;;14.83;8.90;;;;;;;13.51;53.07;100961.58;1666026;83;21746;-63
2021/10/03 08:48:24;;;;;;;;;;;;;;;13.62;52.19;100962.08;1621377;85;21538;-67
2021/10/03 08:50:51;;;;;;;15.07;8.60;;;;;;;13.69;51.68;100956.57;1626155;85;20154;-69
2021/10/03 08:53:18;;;;;;;10.20;7.97;;;;;;;13.77;52.09;100953.22;1628588;85;21664;-62
2021/10/03 08:55:45;;;;;;;11.50;6.95;;;;;;;13.90;51.92;100957.16;1633996;85;21728;-67
2021/10/03 08:58:12;;;;;;;11.93;7.00;;;;;;;14.00;50.48;100958.53;1627234;85;22044;-66
2021/10/03 09:00:48;;;;;;;9.78;7.28;;;;;;;14.09;49.55;100956.03;1636448;84;21554;-68
2021/10/03 09:03:17;;;;;;;11.43;6.25;;;;;;;14.20;49.34;100949.00;1630312;85;21017;-68
2021/10/03 09:05:57;;;;;;;10.20;6.80;;;;;;;14.30;48.73;100947.75;1645943;85;21523;-69
2021/10/03 09:08:28;;;;;;;13.03;6.92;;;;;;;14.38;48.25;100947.45;1647913;84;21566;-67
2021/10/03 09:10:58;;;;;;;9.78;5.83;;;;;;;14.46;47.79;100949.81;1645274;85;22067;-67
2021/10/03 09:13:37;;;;;;;11.45;6.12;;;;;;;14.54;47.35;100951.69;1633524;86;21573;-67
2021/10/03 09:16:25;;;;;;;8.98;6.22;;;;;;;14.63;47.00;100947.41;1654002;84;21462;-65
2021/10/03 09:18:58;;;;;;;10.53;5.55;;;;;;;14.74;46.02;100946.99;1598847;85;21638;-65
2021/10/03 09:21:39;;;;;;;11.40;5.72;;;;;;;14.84;46.17;100953.63;1637810;87;21590;-65
2021/10/03 09:24:11;;;;;;;10.23;5.75;;;;;;;14.94;45.75;100951.51;1641843;85;22132;-64
2021/10/03 09:27:03;;;;;;;8.95;5.95;;;;;;;15.04;45.50;100952.84;1625075;85;21455;-64
2021/10/03 09:29:36;;;;;;;15.32;5.80;;;;;;;15.13;45.54;100957.77;1629707;85;21443;-64
2021/10/03 09:32:14;;;;;;;7.90;5.85;;;;;;;15.23;45.37;100952.95;1630320;85;21065;-62
2021/10/03 09:34:49;;;;;;;14.70;5.58;;;;;;;15.32;45.01;100953.05;1630824;85;20986;-61
2021/10/03 09:37:29;;;;;;;8.58;5.22;;;;;;;15.41;44.67;100957.08;1632417;85;21862;-61
2021/10/03 09:40:12;;;;;;;8.15;5.78;;;;;;;15.47;43.83;100947.56;1633695;85;21517;-62
2021/10/03 09:42:40;;;;;;;10.23;5.92;;;;;;;15.56;44.17;100949.83;1620581;85;21539;-61
2021/10/03 09:45:15;;;;;;;9.18;5.65;;;;;;;15.66;44.30;100948.48;1625864;85;21602;-61
2021/10/03 09:47:44;;;;;;;8.33;4.97;;;;;;;15.78;43.98;100942.28;1669078;83;21427;-61
2021/10/03 09:50:14;;;;;;;9.08;5.15;;;;;;;15.89;43.66;100944.86;1691572;83;21428;-61
2021/10/03 09:52:41;;;;;;;7.78;4.83;;;;;;;15.96;43.40;100942.80;1663910;84;20958;-61
2021/10/03 09:55:13;;;;;;;14.07;5.12;;;;;;;16.01;43.29;100937.28;1678604;83;20966;-61
2021/10/03 09:57:38;;;;;;;7.10;4.95;;;;;;;16.09;43.09;100936.02;1674213;83;21436;-61
2021/10/03 10:00:07;;;;;;;9.10;5.28;;;;;;;16.18;42.59;100937.41;1671335;83;21553;-62
2021/10/03 10:02:34;;;;;;;6.80;5.05;;;;;;;16.22;42.11;100940.31;1694672;83;21772;-62
2021/10/03 10:05:01;;;;;;;11.40;4.87;;;;;;;16.27;42.32;100929.47;1686195;83;21411;-63
2021/10/03 10:07:33;;;;;;;9.70;5.15;;;;;;;16.32;42.22;100929.65;1675795;83;21487;-61
2021/10/03 10:10:00;;;;;;;11.95;4.75;;;;;;;16.37;41.94;100917.95;1675225;83;21507;-62
2021/10/03 10:12:27;;;;;;;7.92;4.42;;;;;;;16.40;42.05;100921.80;1671865;83;21096;-62
2021/10/03 10:15:09;;;;;;;11.83;5.33;;;;;;;16.45;41.88;100914.02;1678699;83;22015;-62
2021/10/03 10:17:38;;;;;;;13.68;5.40;;;;;;;16.47;41.88;100914.80;1678133;83;21538;-62
2021/10/03 10:20:27;;;;;;;7.17;4.55;;;;;;;16.52;41.55;100910.15;1676510;83;21675;-62
2021/10/03 10:23:07;;;;;;;5.87;4.97;;;;;;;16.57;41.21;100913.05;1677126;83;21549;-62
2021/10/03 10:25:53;;;;;;;7.58;4.95;;;;;;;16.61;41.13;100903.99;1678156;83;21573;-62
2021/10/03 10:28:34;;;;;;;12.95;5.10;;;;;;;16.67;41.33;100905.91;1673377;83;21841;-62
2021/10/03 10:31:17;;;;;;;6.33;4.70;;;;;;;16.72;41.06;100905.19;1672625;83;21518;-61
2021/10/03 10:34:00;;;;;;;8.30;4.58;;;;;;;16.77;41.11;100902.33;1661469;83;21665;-62
2021/10/03 10:36:33;;;;;;;8.98;4.60;;;;;;;16.84;40.85;100902.46;1678490;83;21022;-62
2021/10/03 10:39:14;;;;;;;7.53;4.75;;;;;;;16.92;40.64;100900.75;1683462;83;21578;-62
2021/10/03 10:41:45;;;;;;;8.48;5.03;;;;;;;16.97;40.46;100897.41;1670405;83;21397;-62
2021/10/03 10:44:31;;;;;;;9.85;5.15;;;;;;;17.02;40.54;100900.67;1684092;83;21570;-62
2021/10/03 10:47:10;;;;;;;8.83;4.28;;;;;;;17.05;40.36;100890.38;1688707;83;21455;-62
2021/10/03 10:49:43;;;;;;;10.68;5.10;;;;;;;17.12;40.28;100891.33;1682153;83;21041;-62
2021/10/03 10:52:25;;;;;;;9.10;4.42;;;;;;;17.20;40.11;100888.28;1690661;84;21555;-62
2021/10/03 10:55:21;;;;;;;6.17;4.35;;;;;;;17.24;40.03;100884.52;1697433;83;21423;-62
2021/10/03 10:57:57;;;;;;;7.33;4.53;;;;;;;17.25;39.79;100887.58;1677250;84;21451;-62
2021/10/03 11:00:25;;;;;;;9.25;4.35;;;;;;;17.21;39.86;100879.34;1685296;83;21416;-63
2021/10/03 11:02:57;;;;;;;6.67;4.30;;;;;;;17.24;39.82;100881.02;1688139;83;21671;-63
2021/10/03 11:05:43;;;;;;;7.95;4.97;;;;;;;17.31;39.54;100882.42;1635633;85;21538;-63
2021/10/03 11:08:17;;;;;;;7.83;4.55;;;;;;;17.38;39.78;100869.66;1642338;85;21101;-64
2021/10/03 11:11:09;;;;;;;7.45;4.85;;;;;;;17.46;39.68;100867.00;1675966;83;21058;-62
2021/10/03 11:13:56;;;;;;;8.28;4.37;;;;;;;17.53;39.27;100870.66;1671473;83;21587;-63
2021/10/03 11:16:37;;;;;;;14.07;4.20;;;;;;;17.58;38.47;100871.30;1668101;84;21503;-61
2021/10/03 11:19:13;;;;;;;8.30;4.30;;;;;;;17.63;38.34;100866.12;1673122;84;21567;-64
2021/10/03 11:21:47;;;;;;;5.87;4.00;;;;;;;17.68;37.87;100865.38;1689971;83;21396;-65
2021/10/03 11:24:23;;;;;;;9.90;4.55;;;;;;;17.75;37.51;100868.59;1680219;83;21101;-66
2021/10/03 11:26:56;;;;;;;5.37;3.85;;;;;;;17.77;37.19;100858.73;1661840;84;21559;-65
2021/10/03 11:29:28;;;;;;;5.45;3.87;;;;;;;17.77;37.44;100854.73;1662354;84;21057;-65
2021/10/03 11:32:01;;;;;;;13.03;4.40;;;;;;;17.82;37.21;100854.02;1667360;85;21562;-64